createdAt,value
2023-05-17T00:00:40.563Z,87.41
2023-05-17T00:01:40.563Z,87.41
2023-05-17T00:02:40.570Z,87.51
2023-05-17T00:03:40.555Z,87.61
2023-05-17T00:04:40.583Z,87.51
2023-05-17T00:05:40.558Z,87.30
2023-05-17T00:06:40.515Z,87.35
2023-05-17T00:07:40.515Z,87.35
2023-05-17T00:08:40.475Z,87.55
2023-05-17T00:09:40.493Z,87.65
2023-05-17T00:10:40.521Z,87.35
2023-05-17T00:11:40.439Z,87.55
2023-05-17T00:12:40.450Z,87.79
2023-05-17T00:13:40.440Z,87.55
2023-05-17T00:14:40.443Z,87.59
2023-05-17T00:15:40.462Z,87.55
2023-05-17T00:16:40.436Z,87.49
2023-05-17T00:17:40.467Z,87.49
2023-05-17T00:18:40.478Z,86.98
2023-05-17T00:19:40.385Z,86.67
2023-05-17T00:20:40.418Z,86.67
2023-05-17T00:21:40.338Z,86.88
2023-05-17T00:22:40.316Z,86.77
2023-05-17T00:23:40.312Z,87.12
2023-05-17T00:24:40.324Z,86.81
2023-05-17T00:25:40.317Z,86.40
2023-05-17T00:26:40.288Z,86.61
2023-05-17T00:27:47.833Z,87.02
2023-05-17T00:28:40.278Z,87.32
2023-05-17T00:29:40.281Z,87.43
2023-05-17T00:30:40.270Z,87.53
2023-05-17T00:31:40.289Z,87.63
2023-05-17T00:32:40.269Z,87.73
2023-05-17T00:33:40.207Z,87.73
2023-05-17T00:34:40.279Z,87.84
2023-05-17T00:35:40.271Z,87.94
2023-05-17T00:36:40.241Z,87.94
2023-05-17T00:37:40.277Z,87.77
2023-05-17T00:38:40.339Z,87.47
2023-05-17T00:39:40.176Z,87.67
2023-05-17T00:40:40.274Z,87.88
2023-05-17T00:41:40.116Z,87.98
2023-05-17T00:42:40.095Z,87.77
2023-05-17T00:43:40.256Z,87.37
2023-05-17T00:44:40.088Z,87.51
2023-05-17T00:45:40.199Z,87.71
2023-05-17T00:46:40.112Z,87.82
2023-05-17T00:47:40.091Z,87.51
2023-05-17T00:48:40.204Z,87.30
2023-05-17T00:49:40.023Z,87.51
2023-05-17T00:50:40.091Z,87.71
2023-05-17T00:51:40.057Z,87.82
2023-05-17T00:52:40.027Z,88.02
2023-05-17T00:53:39.974Z,88.02
2023-05-17T00:54:40.191Z,88.33
2023-05-17T00:55:40.012Z,88.43
2023-05-17T00:56:39.944Z,88.57
2023-05-17T00:57:40.193Z,88.88
2023-05-17T00:58:40.135Z,89.09
2023-05-17T00:59:40.077Z,88.98
2023-05-17T01:00:40.050Z,88.98
2023-05-17T01:01:40.397Z,88.98
2023-05-17T01:02:39.933Z,88.62
2023-05-17T01:03:39.941Z,88.10
2023-05-17T01:04:39.939Z,88.31
2023-05-17T01:05:39.887Z,88.51
2023-05-17T01:06:39.930Z,88.78
2023-05-17T01:07:39.967Z,88.88
2023-05-17T01:08:39.892Z,88.57
2023-05-17T01:09:40.015Z,88.17
2023-05-17T01:10:40.063Z,88.06
2023-05-17T01:11:39.955Z,87.61
2023-05-17T01:12:39.970Z,87.71
2023-05-17T01:13:39.936Z,87.51
2023-05-17T01:14:39.901Z,87.30
2023-05-17T01:15:39.815Z,87.20
2023-05-17T01:16:40.059Z,86.99
2023-05-17T01:17:39.802Z,86.65
2023-05-17T01:18:39.865Z,86.24
2023-05-17T01:19:40.012Z,86.04
2023-05-17T01:20:39.845Z,86.14
2023-05-17T01:21:39.782Z,86.14
2023-05-17T01:22:39.827Z,85.72
2023-05-17T01:23:39.762Z,85.31
2023-05-17T01:24:39.951Z,85.31
2023-05-17T01:25:39.868Z,85.11
2023-05-17T01:26:39.687Z,85.31
2023-05-17T01:27:39.898Z,85.22
2023-05-17T01:28:39.628Z,84.91
2023-05-17T01:29:39.778Z,85.22
2023-05-17T01:30:39.583Z,85.11
2023-05-17T01:31:39.626Z,84.80
2023-05-17T01:32:39.829Z,84.60
2023-05-17T01:33:40.111Z,84.91
2023-05-17T01:34:39.697Z,85.25
2023-05-17T01:35:39.696Z,85.11
2023-05-17T01:36:39.561Z,85.31
2023-05-17T01:37:39.629Z,85.42
2023-05-17T01:38:39.706Z,85.63
2023-05-17T01:39:39.498Z,85.15
2023-05-17T01:40:39.688Z,85.25
2023-05-17T01:41:39.530Z,85.46
2023-05-17T01:42:39.633Z,85.36
2023-05-17T01:43:39.555Z,85.87
2023-05-17T01:44:39.411Z,85.77
2023-05-17T01:45:39.584Z,85.77
2023-05-17T01:46:39.425Z,85.66
2023-05-17T01:47:39.540Z,85.77
2023-05-17T01:48:39.459Z,85.66
2023-05-17T01:49:39.385Z,85.77
2023-05-17T01:50:39.534Z,85.87
2023-05-17T01:51:39.365Z,85.87
2023-05-17T01:52:39.612Z,85.97
2023-05-17T01:53:39.547Z,85.97
2023-05-17T01:54:39.507Z,85.87
2023-05-17T01:55:39.310Z,85.91
2023-05-17T01:56:39.534Z,85.50
2023-05-17T01:57:39.502Z,85.60
2023-05-17T01:58:39.622Z,86.11
2023-05-17T01:59:39.258Z,86.01
2023-05-17T02:00:39.397Z,85.91
2023-05-17T02:01:39.343Z,85.80
2023-05-17T02:02:39.430Z,85.91
2023-05-17T02:03:39.503Z,85.91
2023-05-17T02:04:39.322Z,86.01
2023-05-17T02:05:39.270Z,86.01
2023-05-17T02:06:39.268Z,86.01
2023-05-17T02:07:39.302Z,86.11
2023-05-17T02:08:39.371Z,86.22
2023-05-17T02:09:39.237Z,86.32
2023-05-17T02:10:39.258Z,86.52
2023-05-17T02:11:39.334Z,86.15
2023-05-17T02:12:39.269Z,86.25
2023-05-17T02:13:39.319Z,86.36
2023-05-17T02:14:39.133Z,86.66
2023-05-17T02:15:39.199Z,86.66
2023-05-17T02:16:39.284Z,86.87
2023-05-17T02:17:39.158Z,86.98
2023-05-17T02:18:39.504Z,86.98
2023-05-17T02:19:39.142Z,86.87
2023-05-17T02:20:39.115Z,86.77
2023-05-17T02:21:39.063Z,86.57
2023-05-17T02:22:39.301Z,86.87
2023-05-17T02:23:39.113Z,86.87
2023-05-17T02:24:39.044Z,86.87
2023-05-17T02:25:39.147Z,86.50
2023-05-17T02:26:39.099Z,86.60
2023-05-17T02:27:39.022Z,86.77
2023-05-17T02:28:39.419Z,86.77
2023-05-17T02:29:38.978Z,86.66
2023-05-17T02:30:39.082Z,86.66
2023-05-17T02:31:38.913Z,86.66
2023-05-17T02:32:39.115Z,86.87
2023-05-17T02:33:39.002Z,86.98
2023-05-17T02:34:39.226Z,86.57
2023-05-17T02:35:39.358Z,86.36
2023-05-17T02:36:39.020Z,86.36
2023-05-17T02:37:38.926Z,86.36
2023-05-17T02:38:39.110Z,86.36
2023-05-17T02:39:39.006Z,85.74
2023-05-17T02:40:38.925Z,85.54
2023-05-17T02:41:38.942Z,85.95
2023-05-17T02:42:38.854Z,86.15
2023-05-17T02:43:38.816Z,86.05
2023-05-17T02:44:38.798Z,85.95
2023-05-17T02:45:38.801Z,86.05
2023-05-17T02:46:39.026Z,86.25
2023-05-17T02:47:39.169Z,86.46
2023-05-17T02:48:39.170Z,86.25
2023-05-17T02:49:38.936Z,86.05
2023-05-17T02:50:38.828Z,86.25
2023-05-17T02:51:38.758Z,86.05
2023-05-17T02:52:38.757Z,86.05
2023-05-17T02:53:38.740Z,86.25
2023-05-17T02:54:38.690Z,86.15
2023-05-17T02:55:38.955Z,85.85
2023-05-17T02:56:38.769Z,85.85
2023-05-17T02:57:38.891Z,85.85
2023-05-17T02:58:38.812Z,85.85
2023-05-17T02:59:38.592Z,85.64
2023-05-17T03:00:38.679Z,85.33
2023-05-17T03:01:38.658Z,85.54
2023-05-17T03:02:38.741Z,85.13
2023-05-17T03:03:38.918Z,85.23
2023-05-17T03:04:38.649Z,85.33
2023-05-17T03:05:38.671Z,85.33
2023-05-17T03:06:38.744Z,85.33
2023-05-17T03:07:38.633Z,85.33
2023-05-17T03:08:38.779Z,85.33
2023-05-17T03:09:38.595Z,85.33
2023-05-17T03:10:38.577Z,85.13
2023-05-17T03:11:38.626Z,85.23
2023-05-17T03:12:38.917Z,85.33
2023-05-17T03:13:38.513Z,85.13
2023-05-17T03:14:38.532Z,85.23
2023-05-17T03:15:38.622Z,85.44
2023-05-17T03:16:38.546Z,85.54
2023-05-17T03:17:38.825Z,85.27
2023-05-17T03:18:38.570Z,85.68
2023-05-17T03:19:38.973Z,85.99
2023-05-17T03:20:38.516Z,85.99
2023-05-17T03:21:38.725Z,85.89
2023-05-17T03:22:38.492Z,85.89
2023-05-17T03:23:38.354Z,85.89
2023-05-17T03:24:38.640Z,85.47
2023-05-17T03:25:38.362Z,85.38
2023-05-17T03:26:38.453Z,85.47
2023-05-17T03:27:38.414Z,85.38
2023-05-17T03:28:38.275Z,85.38
2023-05-17T03:29:38.280Z,85.38
2023-05-17T03:30:38.655Z,84.76
2023-05-17T03:31:38.260Z,84.66
2023-05-17T03:32:38.315Z,85.27
2023-05-17T03:33:38.559Z,85.27
2023-05-17T03:34:38.258Z,85.47
2023-05-17T03:35:38.656Z,85.58
2023-05-17T03:36:38.348Z,85.38
2023-05-17T03:37:38.222Z,85.06
2023-05-17T03:38:38.286Z,84.96
2023-05-17T03:39:38.337Z,84.96
2023-05-17T03:40:38.374Z,84.96
2023-05-17T03:41:38.277Z,84.55
2023-05-17T03:42:38.144Z,84.34
2023-05-17T03:43:38.127Z,84.25
2023-05-17T03:44:38.218Z,84.25
2023-05-17T03:45:38.310Z,84.45
2023-05-17T03:46:38.086Z,84.25
2023-05-17T03:47:38.205Z,84.14
2023-05-17T03:48:38.201Z,83.83
2023-05-17T03:49:38.164Z,83.01
2023-05-17T03:50:38.212Z,82.70
2023-05-17T03:51:38.092Z,83.07
2023-05-17T03:52:38.360Z,83.49
2023-05-17T03:53:38.188Z,83.69
2023-05-17T03:54:38.168Z,83.69
2023-05-17T03:55:38.017Z,83.90
2023-05-17T03:56:38.258Z,84.00
2023-05-17T03:57:38.183Z,84.10
2023-05-17T03:58:38.125Z,84.31
2023-05-17T03:59:37.974Z,84.00
2023-05-17T04:00:38.082Z,83.80
2023-05-17T04:01:37.974Z,83.39
2023-05-17T04:02:38.336Z,83.07
2023-05-17T04:03:38.089Z,82.70
2023-05-17T04:04:37.926Z,82.50
2023-05-17T04:05:38.020Z,82.81
2023-05-17T04:06:38.075Z,82.91
2023-05-17T04:07:38.042Z,83.01
2023-05-17T04:08:37.940Z,83.07
2023-05-17T04:09:38.156Z,82.97
2023-05-17T04:10:38.250Z,82.26
2023-05-17T04:11:38.400Z,82.36
2023-05-17T04:12:38.139Z,82.26
2023-05-17T04:13:37.932Z,82.26
2023-05-17T04:14:38.162Z,82.15
2023-05-17T04:15:37.866Z,81.95
2023-05-17T04:16:37.928Z,81.74
2023-05-17T04:17:37.863Z,82.12
2023-05-17T04:18:38.051Z,81.91
2023-05-17T04:19:38.247Z,81.81
2023-05-17T04:20:38.549Z,81.60
2023-05-17T04:21:37.874Z,80.68
2023-05-17T04:22:37.955Z,80.99
2023-05-17T04:23:37.724Z,81.29
2023-05-17T04:24:37.766Z,81.05
2023-05-17T04:25:37.700Z,80.74
2023-05-17T04:26:37.816Z,81.05
2023-05-17T04:27:37.831Z,80.85
2023-05-17T04:28:38.239Z,81.26
2023-05-17T04:29:37.956Z,80.54
2023-05-17T04:30:37.730Z,80.33
2023-05-17T04:31:37.784Z,80.03
2023-05-17T04:32:38.149Z,79.93
2023-05-17T04:33:38.159Z,80.13
2023-05-17T04:34:37.691Z,80.03
2023-05-17T04:35:37.716Z,80.23
2023-05-17T04:36:37.598Z,80.23
2023-05-17T04:37:37.553Z,80.23
2023-05-17T04:38:37.513Z,79.21
2023-05-17T04:39:37.929Z,79.41
2023-05-17T04:40:37.764Z,80.03
2023-05-17T04:41:37.706Z,80.33
2023-05-17T04:42:37.531Z,80.03
2023-05-17T04:43:37.687Z,79.62
2023-05-17T04:44:37.493Z,78.70
2023-05-17T04:45:37.646Z,79.11
2023-05-17T04:46:37.441Z,79.00
2023-05-17T04:47:37.542Z,79.21
2023-05-17T04:48:37.491Z,78.70
2023-05-17T04:49:37.421Z,78.80
2023-05-17T04:50:37.590Z,78.39
2023-05-17T04:51:37.439Z,78.19
2023-05-17T04:52:37.586Z,78.49
2023-05-17T04:53:37.540Z,78.76
2023-05-17T04:54:37.800Z,78.86
2023-05-17T04:55:37.321Z,78.66
2023-05-17T04:56:37.428Z,78.05
2023-05-17T04:57:37.420Z,77.94
2023-05-17T04:58:37.348Z,77.43
2023-05-17T04:59:37.352Z,77.43
2023-05-17T05:00:37.352Z,77.84
2023-05-17T05:01:37.336Z,77.43
2023-05-17T05:02:37.506Z,77.33
2023-05-17T05:03:37.296Z,77.73
2023-05-17T05:04:37.331Z,77.33
2023-05-17T05:05:37.433Z,76.92
2023-05-17T05:06:37.266Z,77.64
2023-05-17T05:07:37.350Z,77.94
2023-05-17T05:08:37.210Z,78.45
2023-05-17T05:09:37.222Z,78.35
2023-05-17T05:10:37.268Z,77.43
2023-05-17T05:11:37.227Z,77.73
2023-05-17T05:12:37.331Z,78.15
2023-05-17T05:13:37.268Z,77.12
2023-05-17T05:14:37.726Z,76.31
2023-05-17T05:15:37.184Z,77.12
2023-05-17T05:16:37.173Z,75.69
2023-05-17T05:17:37.215Z,75.73
2023-05-17T05:18:37.337Z,76.75
2023-05-17T05:19:37.101Z,76.65
2023-05-17T05:20:37.057Z,76.95
2023-05-17T05:21:37.065Z,77.12
2023-05-17T05:22:37.037Z,77.33
2023-05-17T05:23:37.054Z,76.61
2023-05-17T05:24:37.001Z,76.81
2023-05-17T05:25:37.070Z,76.10
2023-05-17T05:26:36.991Z,76.31
2023-05-17T05:27:37.834Z,75.48
2023-05-17T05:28:36.961Z,75.07
2023-05-17T05:29:36.999Z,75.79
2023-05-17T05:30:36.971Z,76.47
2023-05-17T05:31:36.961Z,76.68
2023-05-17T05:32:37.007Z,76.47
2023-05-17T05:33:36.985Z,75.45
2023-05-17T05:34:36.928Z,74.73
2023-05-17T05:35:36.927Z,74.49
2023-05-17T05:36:36.894Z,74.69
2023-05-17T05:37:36.878Z,75.01
2023-05-17T05:38:36.842Z,74.35
2023-05-17T05:39:36.893Z,73.54
2023-05-17T05:40:36.838Z,73.54
2023-05-17T05:41:36.867Z,72.52
2023-05-17T05:42:36.805Z,72.21
2023-05-17T05:43:36.826Z,73.10
2023-05-17T05:44:36.793Z,73.30
2023-05-17T05:45:36.820Z,71.77
2023-05-17T05:46:36.793Z,71.66
2023-05-17T05:47:36.776Z,72.17
2023-05-17T05:48:36.845Z,72.38
2023-05-17T05:49:36.744Z,71.97
2023-05-17T05:50:36.719Z,71.56
2023-05-17T05:51:36.745Z,72.58
2023-05-17T05:52:36.714Z,71.97
2023-05-17T05:53:36.687Z,70.43
2023-05-17T05:54:36.696Z,70.03
2023-05-17T05:55:36.722Z,71.36
2023-05-17T05:56:36.707Z,71.77
2023-05-17T05:57:36.703Z,71.15
2023-05-17T05:58:36.657Z,69.55
2023-05-17T05:59:36.687Z,68.63
2023-05-17T06:00:36.607Z,70.47
2023-05-17T06:01:36.631Z,70.57
2023-05-17T06:02:36.629Z,71.39
2023-05-17T06:03:36.646Z,70.78
2023-05-17T06:04:45.073Z,70.37
2023-05-17T06:05:36.639Z,69.96
2023-05-17T06:06:36.966Z,70.88
2023-05-17T06:07:36.612Z,70.47
2023-05-17T06:08:36.547Z,69.75
2023-05-17T06:09:36.520Z,71.08
2023-05-17T06:10:36.557Z,70.40
2023-05-17T06:11:36.582Z,71.59
2023-05-17T06:12:36.598Z,70.91
2023-05-17T06:13:36.470Z,71.22
2023-05-17T06:14:36.456Z,70.61
2023-05-17T06:15:36.471Z,70.98
2023-05-17T06:16:36.464Z,71.19
2023-05-17T06:17:36.506Z,71.70
2023-05-17T06:18:36.550Z,72.72
2023-05-17T06:19:36.533Z,72.62
2023-05-17T06:20:36.490Z,72.41
2023-05-17T06:21:36.411Z,72.00
2023-05-17T06:22:36.364Z,72.41
2023-05-17T06:23:36.398Z,72.11
2023-05-17T06:24:36.358Z,73.54
2023-05-17T06:25:36.471Z,74.15
2023-05-17T06:26:36.375Z,73.74
2023-05-17T06:27:36.421Z,75.07
2023-05-17T06:28:36.357Z,75.68
2023-05-17T06:29:36.367Z,76.50
2023-05-17T06:30:36.871Z,75.99
2023-05-17T06:31:36.283Z,75.38
2023-05-17T06:32:36.321Z,75.27
2023-05-17T06:33:36.307Z,76.09
2023-05-17T06:34:36.251Z,75.99
2023-05-17T06:35:54.346Z,75.48
2023-05-17T06:36:37.619Z,75.89
2023-05-17T06:37:36.208Z,75.07
2023-05-17T06:38:36.226Z,74.97
2023-05-17T06:39:36.197Z,74.46
2023-05-17T06:40:36.626Z,74.76
2023-05-17T06:41:36.196Z,74.87
2023-05-17T06:42:36.181Z,74.26
2023-05-17T06:43:37.825Z,73.74
2023-05-17T06:44:36.181Z,74.46
2023-05-17T06:45:36.125Z,74.35
2023-05-17T06:46:36.129Z,74.15
2023-05-17T06:47:36.259Z,73.54
2023-05-17T06:48:36.246Z,74.35
2023-05-17T06:49:36.087Z,73.54
2023-05-17T06:50:36.057Z,74.26
2023-05-17T06:51:36.933Z,73.06
2023-05-17T06:52:36.057Z,72.86
2023-05-17T06:53:36.069Z,73.06
2023-05-17T06:54:36.048Z,73.98
2023-05-17T06:55:36.026Z,73.06
2023-05-17T06:56:36.010Z,72.45
2023-05-17T06:57:36.043Z,72.24
2023-05-17T06:58:36.004Z,72.86
2023-05-17T06:59:35.971Z,71.94
2023-05-17T07:00:35.966Z,71.62
2023-05-17T07:01:35.975Z,71.62
2023-05-17T07:02:36.034Z,69.27
2023-05-17T07:03:36.050Z,70.09
2023-05-17T07:04:35.946Z,69.07
2023-05-17T07:05:35.984Z,68.66
2023-05-17T07:06:35.916Z,68.42
2023-05-17T07:07:35.916Z,68.42
2023-05-17T07:08:35.931Z,67.71
2023-05-17T07:09:35.909Z,66.78
2023-05-17T07:10:35.858Z,66.35
2023-05-17T07:11:35.871Z,66.86
2023-05-17T07:12:35.880Z,67.27
2023-05-17T07:13:35.814Z,65.94
2023-05-17T07:14:35.807Z,66.14
2023-05-17T07:15:35.818Z,67.75
2023-05-17T07:16:35.779Z,67.34
2023-05-17T07:17:35.893Z,66.52
2023-05-17T07:18:35.858Z,65.40
2023-05-17T07:19:35.883Z,65.77
2023-05-17T07:20:35.757Z,65.37
2023-05-17T07:21:35.735Z,65.06
2023-05-17T07:22:35.733Z,64.14
2023-05-17T07:23:35.734Z,64.04
2023-05-17T07:24:35.702Z,64.75
2023-05-17T07:25:35.692Z,65.26
2023-05-17T07:26:35.735Z,65.95
2023-05-17T07:27:35.681Z,64.31
2023-05-17T07:28:35.648Z,64.52
2023-05-17T07:29:35.641Z,65.71
2023-05-17T07:30:35.637Z,65.31
2023-05-17T07:31:35.614Z,65.00
2023-05-17T07:32:35.867Z,62.99
2023-05-17T07:33:35.618Z,64.14
2023-05-17T07:34:35.804Z,64.86
2023-05-17T07:35:35.570Z,64.04
2023-05-17T07:36:35.617Z,65.06
2023-05-17T07:37:35.602Z,64.52
2023-05-17T07:38:35.546Z,63.83
2023-05-17T07:39:35.527Z,64.14
2023-05-17T07:40:35.713Z,64.34
2023-05-17T07:41:36.439Z,64.55
2023-05-17T07:42:35.541Z,64.93
2023-05-17T07:43:35.493Z,65.44
2023-05-17T07:44:35.478Z,64.31
2023-05-17T07:45:36.055Z,65.23
2023-05-17T07:46:35.502Z,65.10
2023-05-17T07:47:35.576Z,64.59
2023-05-17T07:48:35.773Z,63.26
2023-05-17T07:49:35.470Z,63.57
2023-05-17T07:50:35.413Z,64.18
2023-05-17T07:51:35.420Z,64.39
2023-05-17T07:52:35.402Z,64.28
2023-05-17T07:53:35.388Z,64.39
2023-05-17T07:54:35.375Z,63.49
2023-05-17T07:55:35.359Z,63.70
2023-05-17T07:56:35.356Z,64.18
2023-05-17T07:57:35.363Z,64.79
2023-05-17T07:58:35.376Z,64.08
2023-05-17T07:59:35.324Z,63.75
2023-05-17T08:00:35.311Z,64.15
2023-05-17T08:01:35.320Z,63.51
2023-05-17T08:02:35.343Z,64.73
2023-05-17T08:03:35.318Z,62.93
2023-05-17T08:04:35.280Z,63.64
2023-05-17T08:05:35.300Z,64.56
2023-05-17T08:06:35.274Z,64.59
2023-05-17T08:07:35.279Z,64.28
2023-05-17T08:08:35.228Z,65.61
2023-05-17T08:09:35.209Z,65.81
2023-05-17T08:10:35.187Z,65.48
2023-05-17T08:11:35.418Z,65.99
2023-05-17T08:12:35.945Z,66.60
2023-05-17T08:13:35.172Z,64.66
2023-05-17T08:14:35.150Z,64.76
2023-05-17T08:15:35.198Z,64.97
2023-05-17T08:16:35.126Z,65.31
2023-05-17T08:17:35.222Z,65.10
2023-05-17T08:18:35.251Z,64.72
2023-05-17T08:19:35.246Z,66.25
2023-05-17T08:20:35.079Z,66.74
2023-05-17T08:21:35.083Z,66.22
2023-05-17T08:22:35.175Z,66.63
2023-05-17T08:23:35.074Z,66.80
2023-05-17T08:24:35.035Z,66.09
2023-05-17T08:25:35.044Z,65.65
2023-05-17T08:26:35.049Z,65.07
2023-05-17T08:27:35.055Z,65.58
2023-05-17T08:28:35.017Z,65.17
2023-05-17T08:29:36.084Z,65.68
2023-05-17T08:30:34.977Z,65.55
2023-05-17T08:31:35.026Z,66.77
2023-05-17T08:32:35.011Z,66.67
2023-05-17T08:33:35.187Z,66.70
2023-05-17T08:34:34.950Z,66.70
2023-05-17T08:35:35.065Z,67.62
2023-05-17T08:36:34.997Z,68.33
2023-05-17T08:37:34.908Z,68.13
2023-05-17T08:38:34.918Z,68.44
2023-05-17T08:39:34.955Z,68.64
2023-05-17T08:40:34.925Z,68.74
2023-05-17T08:41:35.566Z,68.13
2023-05-17T08:42:34.869Z,68.16
2023-05-17T08:43:34.867Z,68.47
2023-05-17T08:44:34.824Z,68.37
2023-05-17T08:45:34.803Z,67.45
2023-05-17T08:46:34.793Z,67.04
2023-05-17T08:47:34.876Z,66.50
2023-05-17T08:48:34.811Z,66.27
2023-05-17T08:49:34.767Z,66.16
2023-05-17T08:50:34.738Z,66.27
2023-05-17T08:51:34.760Z,66.47
2023-05-17T08:52:34.802Z,64.73
2023-05-17T08:53:34.701Z,65.11
2023-05-17T08:54:34.704Z,65.42
2023-05-17T08:55:34.739Z,65.49
2023-05-17T08:56:34.681Z,65.19
2023-05-17T08:57:34.700Z,64.23
2023-05-17T08:58:44.752Z,63.53
2023-05-17T08:59:34.659Z,62.88
2023-05-17T09:00:34.664Z,63.06
2023-05-17T09:01:34.632Z,62.14
2023-05-17T09:02:34.766Z,61.94
2023-05-17T09:03:34.650Z,61.87
2023-05-17T09:04:34.645Z,62.27
2023-05-17T09:05:34.656Z,62.07
2023-05-17T09:06:34.555Z,62.20
2023-05-17T09:07:34.600Z,62.71
2023-05-17T09:08:34.543Z,61.90
2023-05-17T09:09:34.553Z,61.41
2023-05-17T09:10:34.571Z,62.13
2023-05-17T09:11:34.521Z,62.63
2023-05-17T09:12:34.524Z,63.24
2023-05-17T09:13:35.067Z,63.24
2023-05-17T09:14:34.497Z,64.67
2023-05-17T09:15:34.497Z,64.87
2023-05-17T09:16:34.488Z,64.98
2023-05-17T09:17:34.594Z,64.98
2023-05-17T09:18:34.506Z,65.01
2023-05-17T09:19:34.543Z,65.62
2023-05-17T09:20:34.538Z,67.25
2023-05-17T09:21:34.534Z,66.74
2023-05-17T09:22:34.438Z,66.64
2023-05-17T09:23:34.405Z,66.13
2023-05-17T09:24:34.410Z,67.12
2023-05-17T09:25:34.392Z,67.32
2023-05-17T09:26:34.362Z,66.41
2023-05-17T09:27:34.480Z,66.47
2023-05-17T09:28:34.323Z,66.07
2023-05-17T09:29:34.337Z,65.86
2023-05-17T09:30:34.368Z,65.08
2023-05-17T09:31:34.308Z,66.20
2023-05-17T09:32:34.369Z,67.22
2023-05-17T09:33:34.360Z,65.72
2023-05-17T09:34:34.298Z,66.74
2023-05-17T09:35:34.274Z,67.08
2023-05-17T09:36:34.247Z,66.67
2023-05-17T09:37:34.288Z,67.55
2023-05-17T09:38:34.248Z,67.05
2023-05-17T09:39:34.216Z,66.00
2023-05-17T09:40:34.243Z,65.08
2023-05-17T09:41:34.212Z,64.57
2023-05-17T09:42:34.194Z,64.67
2023-05-17T09:43:34.195Z,65.66
2023-05-17T09:44:34.183Z,64.75
2023-05-17T09:45:34.166Z,65.33
2023-05-17T09:46:34.152Z,62.96
2023-05-17T09:47:34.269Z,63.26
2023-05-17T09:48:34.262Z,64.07
2023-05-17T09:49:34.135Z,63.67
2023-05-17T09:50:34.111Z,63.43
2023-05-17T09:51:34.083Z,62.93
2023-05-17T09:52:34.128Z,62.01
2023-05-17T09:53:34.044Z,61.81
2023-05-17T09:54:34.099Z,62.04
2023-05-17T09:55:34.052Z,62.96
2023-05-17T09:56:34.058Z,63.46
2023-05-17T09:57:34.037Z,63.39
2023-05-17T09:58:34.048Z,64.51
2023-05-17T09:59:34.199Z,64.00
2023-05-17T10:00:33.991Z,63.73
2023-05-17T10:01:34.224Z,64.44
2023-05-17T10:02:34.054Z,64.64
2023-05-17T10:03:34.152Z,65.25
2023-05-17T10:04:33.992Z,64.34
2023-05-17T10:05:34.118Z,64.54
2023-05-17T10:06:46.077Z,63.83
2023-05-17T10:07:33.949Z,63.83
2023-05-17T10:08:33.905Z,62.92
2023-05-17T10:09:33.913Z,62.81
2023-05-17T10:10:33.905Z,64.03
2023-05-17T10:11:33.864Z,64.47
2023-05-17T10:12:33.900Z,64.03
2023-05-17T10:13:33.842Z,63.93
2023-05-17T10:14:33.923Z,63.80
2023-05-17T10:15:33.841Z,63.26
2023-05-17T10:16:33.813Z,62.14
2023-05-17T10:17:33.868Z,62.21
2023-05-17T10:18:33.925Z,61.51
2023-05-17T10:19:33.900Z,60.66
2023-05-17T10:20:33.812Z,60.33
2023-05-17T10:21:33.762Z,60.53
2023-05-17T10:22:33.778Z,59.79
2023-05-17T10:23:33.741Z,59.48
2023-05-17T10:24:33.750Z,58.67
2023-05-17T10:25:33.747Z,57.97
2023-05-17T10:26:33.730Z,58.70
2023-05-17T10:27:33.706Z,58.12
2023-05-17T10:28:33.703Z,57.41
2023-05-17T10:29:33.676Z,57.92
2023-05-17T10:30:33.693Z,58.53
2023-05-17T10:31:33.680Z,58.22
2023-05-17T10:32:33.667Z,56.90
2023-05-17T10:33:33.771Z,57.92
2023-05-17T10:34:33.613Z,57.81
2023-05-17T10:35:33.659Z,58.09
2023-05-17T10:36:33.712Z,57.68
2023-05-17T10:37:33.598Z,57.79
2023-05-17T10:38:41.824Z,59.14
2023-05-17T10:39:33.563Z,59.24
2023-05-17T10:40:33.631Z,59.37
2023-05-17T10:41:33.554Z,60.38
2023-05-17T10:42:33.545Z,61.40
2023-05-17T10:43:33.527Z,61.10
2023-05-17T10:44:33.513Z,61.20
2023-05-17T10:45:33.569Z,61.83
2023-05-17T10:46:33.486Z,62.85
2023-05-17T10:47:33.557Z,61.02
2023-05-17T10:48:33.504Z,60.21
2023-05-17T10:49:33.547Z,60.59
2023-05-17T10:50:33.459Z,60.05
2023-05-17T10:51:33.447Z,59.75
2023-05-17T10:52:33.459Z,58.80
2023-05-17T10:53:33.425Z,58.53
2023-05-17T10:54:33.390Z,57.34
2023-05-17T10:55:33.372Z,58.45
2023-05-17T10:56:33.392Z,58.33
2023-05-17T10:57:46.363Z,57.48
2023-05-17T10:58:33.360Z,56.95
2023-05-17T10:59:33.319Z,57.93
2023-05-17T11:00:33.364Z,57.12
2023-05-17T11:01:33.310Z,56.92
2023-05-17T11:02:33.379Z,56.59
2023-05-17T11:03:33.285Z,56.72
2023-05-17T11:04:33.307Z,57.46
2023-05-17T11:05:33.413Z,57.66
2023-05-17T11:06:33.377Z,58.29
2023-05-17T11:07:34.094Z,59.21
2023-05-17T11:08:33.235Z,60.05
2023-05-17T11:09:33.225Z,60.15
2023-05-17T11:10:33.200Z,61.47
2023-05-17T11:11:33.212Z,60.05
2023-05-17T11:12:34.270Z,59.77
2023-05-17T11:13:33.187Z,61.10
2023-05-17T11:14:33.159Z,61.81
2023-05-17T11:15:33.155Z,61.40
2023-05-17T11:16:33.147Z,60.89
2023-05-17T11:17:33.173Z,61.71
2023-05-17T11:18:36.409Z,62.82
2023-05-17T11:19:33.209Z,61.40
2023-05-17T11:20:33.537Z,61.68
2023-05-17T11:21:33.089Z,61.04
2023-05-17T11:22:33.094Z,58.27
2023-05-17T11:23:33.067Z,56.92
2023-05-17T11:24:33.103Z,57.64
2023-05-17T11:25:33.098Z,57.40
2023-05-17T11:26:33.044Z,56.39
2023-05-17T11:27:33.055Z,56.79
2023-05-17T11:28:33.043Z,56.49
2023-05-17T11:29:33.041Z,57.53
2023-05-17T11:30:33.009Z,56.31
2023-05-17T11:31:33.070Z,54.90
2023-05-17T11:32:33.077Z,55.40
2023-05-17T11:33:34.105Z,55.63
2023-05-17T11:34:33.077Z,55.12
2023-05-17T11:35:32.942Z,54.31
2023-05-17T11:36:32.951Z,54.51
2023-05-17T11:37:32.978Z,55.22
2023-05-17T11:38:33.111Z,56.11
2023-05-17T11:39:32.943Z,56.70
2023-05-17T11:40:32.935Z,54.44
2023-05-17T11:41:32.882Z,55.45
2023-05-17T11:42:32.874Z,55.55
2023-05-17T11:43:32.931Z,56.18
2023-05-17T11:44:32.867Z,56.70
2023-05-17T11:45:32.841Z,56.39
2023-05-17T11:46:32.819Z,56.21
2023-05-17T11:47:32.888Z,57.35
2023-05-17T11:48:33.055Z,58.17
2023-05-17T11:49:36.396Z,59.18
2023-05-17T11:50:32.806Z,59.52
2023-05-17T11:51:32.788Z,60.43
2023-05-17T11:52:32.752Z,60.43
2023-05-17T11:53:32.794Z,60.13
2023-05-17T11:54:32.718Z,60.53
2023-05-17T11:55:32.719Z,59.59
2023-05-17T11:56:42.689Z,59.52
2023-05-17T11:57:32.735Z,59.69
2023-05-17T11:58:32.740Z,60.20
2023-05-17T11:59:32.681Z,58.78
2023-05-17T12:00:32.661Z,59.46
2023-05-17T12:01:32.672Z,58.34
2023-05-17T12:02:32.679Z,58.75
2023-05-17T12:03:32.656Z,57.93
2023-05-17T12:04:33.262Z,56.90
2023-05-17T12:05:32.613Z,56.99
2023-05-17T12:06:32.683Z,56.70
2023-05-17T12:07:32.610Z,57.37
2023-05-17T12:08:32.616Z,57.07
2023-05-17T12:09:32.558Z,55.76
2023-05-17T12:10:34.586Z,55.45
2023-05-17T12:11:32.577Z,56.05
2023-05-17T12:12:32.540Z,56.46
2023-05-17T12:13:32.527Z,57.17
2023-05-17T12:14:32.525Z,56.49
2023-05-17T12:15:32.495Z,57.03
2023-05-17T12:16:32.490Z,57.66
2023-05-17T12:17:32.590Z,57.35
2023-05-17T12:18:32.585Z,57.89
2023-05-17T12:19:32.699Z,57.89
2023-05-17T12:20:32.676Z,58.27
2023-05-17T12:21:32.435Z,58.14
2023-05-17T12:22:32.420Z,55.78
2023-05-17T12:23:32.429Z,56.90
2023-05-17T12:24:32.409Z,56.79
2023-05-17T12:25:32.401Z,57.84
2023-05-17T12:26:32.382Z,58.04
2023-05-17T12:27:32.354Z,58.24
2023-05-17T12:28:32.371Z,58.95
2023-05-17T12:29:32.344Z,59.56
2023-05-17T12:30:32.335Z,58.54
2023-05-17T12:31:32.347Z,58.17
2023-05-17T12:32:32.395Z,58.65
2023-05-17T12:33:32.347Z,58.72
2023-05-17T12:34:32.285Z,57.93
2023-05-17T12:35:32.295Z,57.84
2023-05-17T12:36:32.275Z,57.73
2023-05-17T12:37:32.267Z,58.14
2023-05-17T12:38:32.258Z,56.90
2023-05-17T12:39:32.253Z,58.39
2023-05-17T12:40:32.219Z,57.15
2023-05-17T12:41:32.227Z,57.45
2023-05-17T12:42:32.231Z,57.65
2023-05-17T12:43:32.227Z,58.26
2023-05-17T12:44:32.163Z,58.56
2023-05-17T12:45:32.190Z,57.88
2023-05-17T12:46:32.148Z,57.30
2023-05-17T12:47:32.261Z,58.22
2023-05-17T12:48:32.179Z,58.82
2023-05-17T12:49:32.140Z,58.52
2023-05-17T12:50:32.172Z,58.01
2023-05-17T12:51:32.111Z,58.01
2023-05-17T12:52:32.106Z,58.72